Central Sonoma County Latest

37 Stations

15 Minute Data
as of 5/2/26 2:46 PM PDT
Station Date Time Temp (°F) RH (%) Dew Pt (°F) Wind Spd (mph) Wind Dir (°) Wind Gust (mph) Latest Rain (In) Daily Rain (In) Daily Max Temp (°F) Daily Min Temp (°F)
Windsor-NW (Ranch 8) 5/2/26 1445 59.9   15.2 79   22 53.2   5.2 5.1   2.5 W | 259 10.2   3.5 0.00 0.00 60.8   14.6 52.2   2.1
Windsor-East (Ranch 16) 5/2/26 1445 60.1   13.0 73   20 51.4   3.4 4.7   0.5 S | 187 8.9   1.8 0.00 0.00 62.1   11.9 52.3   4.3
Mark West-North (Ranch 14) 5/2/26 1445 59.7   12.9 73   20 51.0   3.6 3.5   0.4 S | 174 9.0   0.8 0.00 0.00 61.1   12.1 52.6   2.0
Windsor-SE (Silk Rd) 5/2/26 1445 60.4   12.8 73   22 51.6   2.5 4.4   1.4 SSW | 207 9.0   2.1 0.00 0.00 60.7   13.3 52.3   3.4
Fulton-NW (Ranch 5) 5/2/26 1445 60.4   13.2 73   19 51.6   4.1 5.1   1.2 S | 187 11.6   1.7 0.00 0.00 61.2   12.9 52.6   2.7
Bisordi (Fulton) 5/2/26 1445 59.6   14.0 78   18 52.9   6.4 4.7   0.9 SW | 222 11.2   3.1 0.00 0.00 60.9   12.9 52.9   3.0
Windsor-South (Laughlin Rd) 2/28/26 0515 55.4   5.1 92   7 53.2   3.1 - - - 0.00 0.00 61.9   7.4 55.2   5.6
Fulton-SE (Barnes Rd) 5/2/26 1445 59.8   13.6 74   18 51.4   5.0 4.3   4.3 S | 176 9.9   9.9 0.00 0.00 61.1   12.9 52.9   1.3
Fulton-SW (Ranch 21) 5/2/26 1430 59.7   12.3 73   17 51.2   4.3 7.1   2.4 SW | 219 11.2   2.6 0.00 0.00 60.1   12.9 52.1   2.0
NW Santa Rosa (Piner Road) 5/2/26 1445 58.4   13.5 85   20 54.0   5.6 5.5   1.1 SW | 230 11.0   0.5 0.00 0.00 59.6   12.8 52.2   1.2
River Rd South (Denner Ranch) 5/2/26 1445 59.9   12.0 72   16 51.0   4.7 6.7   0.1 S | 176 11.6   1.1 - - 60.3   12.4 51.4   2.1
West Santa Rosa (LOV Vineyard) 5/2/26 1445 59.0   12.9 75   18 51.1   4.9 5.5   0.6 SW | 214 9.8   1.6 0.00 0.00 59.6   12.5 52.2   1.5
Guerneville Rd (Prokopakis) 5/2/26 1445 63.8   13.8 66   16 52.2   5.4 - - - 0.00 0.00 64.4   13.4 52.8   1.8
SunnyView Vineyard (SCWC) 5/2/26 1445 59.9   12.0 73   14 51.1   5.4 5.3   1.6 SW | 219 11.1   4.0 0.00 0.00 60.4   12.2 52.0   1.6
Guerneville Rd West (Balletto) 5/2/26 1445 59.2   12.4 78   16 52.6   5.6 5.3   0.5 SW | 232 10.0   0.4 0.00 0.00 59.6   12.6 52.5   1.9
Sanchietti Ranch 5/2/26 1445 60.9   12.5 78   11 53.9   7.7 4.9   0.2 SW | 226 11.2   1.2 0.00 0.00 61.1   12.3 53.5   1.9
Occidental Rd (Sebastopol) 5/2/26 1445 59.8   12.1 100   11 59.8   8.5 5.0   0.3 SSW | 208 9.6   0.2 0.00 0.00 60.5   11.8 51.8   2.9
Harper's Rest (Windsor-West) 5/2/26 1445 59.1   15.6 74   23 50.8   4.7 2.2   1.1 SE | 129 6.7   1.7 0.00 0.00 60.2   14.9 50.6   4.1
Lower Westside Rd (Ranch 12) 5/2/26 1445 59.8   15.1 74   24 51.5   3.3 2.2   1.6 SW | 219 6.4   2.1 0.00 0.00 60.8   14.8 52.0   3.5
Guerneville (Laughlin Rd) 5/2/26 1445 61.5   13.2 66   13 50.1   6.6 3.3   2.2 SSE | 147 7.2   2.6 0.00 0.00 61.8   14.4 52.4   4.4
Korbel (Winery) 5/2/26 1445 60.2   16.2 71   15 50.9   8.9 0.6   3.0 NE | 34 4.4   2.8 0.00 0.00 60.2   16.9 52.5   2.2
Forestville (Shone Farms) 5/2/26 1445 59.2   14.0 75   23 51.4   3.2 3.3   0.0 SSE | 148 7.9   0.7 0.00 0.00 61.4   13.8 50.6   1.8
Forestville-NE (Ranch 30) 5/2/26 1445 59.1   14.9 80   25 53.0   3.8 4.1   1.4 SSE | 167 9.1   0.5 0.00 0.00 59.3   15.3 51.4   3.0
Foggy Bend (Ranch 41) 5/2/26 1445 59.8   14.2 78   20 53.0   5.2 3.0   1.1 S | 169 6.1   2.6 0.00 0.00 59.9   14.7 52.6   2.6
Last Stop 5/2/26 1445 59.3   13.9 78   15 52.4   7.2 3.4   1.5 SSE | 157 7.7   1.7 0.00 0.00 59.6   14.0 51.6   5.5
Green Valley Vineyard 5/2/26 1445 58.5   13.4 77   21 51.5   4.1 2.7   2.1 SSW | 193 5.7   2.9 0.00 0.00 58.8   13.6 50.6   2.7
Park Royal 5/2/26 1445 59.4   13.1 73   18 50.6   4.7 - - - 0.00 0.00 59.8   13.4 52.5   1.2
Merino 5/2/26 1445 59.6   11.8 81   16 53.9   5.3 4.0   0.8 SSW | 208 10.8   1.8 0.00 0.00 59.9   12.1 52.4   1.9
Green Valley (Sanchietti) 5/2/26 1445 60.4   12.1 - - - - - - - 61.0   12.7 52.1   5.6
Keefer Ranch (Green Valley) 5/2/26 1445 59.4   12.8 77   15 52.2   6.2 - - - 0.00 0.00 59.4   13.2 52.0   5.3
Graton-West (Dutton Ranch) 5/2/26 1445 59.8   13.2 100   37 59.8   0.0 3.0   2.0 SSE | 155 6.4   2.6 0.00 0.00 60.5   13.5 52.0   3.6
Graton-South (Mill Station Rd) 5/2/26 1445 57.7   9.8 76   11 50.2   5.2 1.5   1.7 SSW | 193 4.5   2.7 0.00 0.00 58.4   10.5 51.6   6.5
Occidental (Horseshoe Bend) 5/2/26 1445 56.2   10.9 80   15 50.1   4.9 - - - 0.00 0.01 56.4   11.1 49.5   2.3
Sexton Valley (Jacqueline's Blk) 5/2/26 1445 58.5   9.1 78   8 51.6   5.9 2.2   0.8 WSW | 248 6.8   2.9 0.00 0.00 59.0   9.7 51.9   6.3
Sebastopol Hills (Burnside Rd) 5/2/26 1445 55.9   7.4 85   7 51.4   5.0 3.8   3.2 SSW | 194 7.5   4.2 0.00 0.00 56.2   8.5 50.3   1.4
Pleasant Hill 5/2/26 1445 57.4   11.2 76   12 50.0   6.1 4.1   1.6 S | 187 8.4   0.8 0.00 0.00 57.8   12.6 50.7   5.5
Seaview/Fort Ross (Hirsch) 5/2/26 1445 57.4   3.3 80   7 51.4   0.6 3.9   0.7 WSW | 257 9.4   2.1 0.00 0.00 57.4   8.9 46.6   5.0
Max     63.8 100 59.8 7.1 - 11.6 0.00 0.01 64.4 53.5
Avg     59.4 77 52.2 4.0 - 8.7 0.00 - - -
Min     55.9 66 50.0 0.6 - 4.4 0.00 0.00 56.2 46.6